Wednesday, October 17, 2018, 11:08 AM CDT
Back to Local

KIGQ, Chicago, Lansing Municipal Airport

Location: Chicago Heights, IL, United States Lat: 41.54
Local Time: 11:08 AM CDT (16:08 GMT) Lon: -87.532
Time Zone: US/Central Elev: 616 ft

Show me the last for .
Show Decoded

2018-10-17 10:35 METAR KIGQ 171535Z AUTO 32005G14KT 10SM OVC035 07/M01 A3029 RMK AO2 T00661013 =
2018-10-17 10:15 METAR KIGQ 171515Z AUTO 33008KT 300V010 10SM OVC035 07/M01 A3028 RMK AO2
                 T00651015 =
2018-10-17 09:55 METAR KIGQ 171455Z AUTO 33011G15KT 10SM OVC035 06/M01 A3027 RMK AO2 T00621013 =
2018-10-17 09:35 METAR KIGQ 171435Z AUTO 33013G17KT 10SM OVC033 06/M01 A3026 RMK AO2 T00611012 =
2018-10-17 09:15 METAR KIGQ 171415Z AUTO 33009KT 10SM OVC033 06/00 A3026 RMK AO2 T00621005 =
2018-10-17 08:55 METAR KIGQ 171355Z AUTO 31010G18KT 10SM OVC035 06/M01 A3024 RMK AO2 T00591006 =
2018-10-17 08:35 METAR KIGQ 171335Z AUTO 32009G16KT 10SM BKN035 06/00 A3023 RMK AO2 T00611002 =
2018-10-17 08:15 METAR KIGQ 171315Z AUTO 30007G14KT 10SM CLR 06/00 A3021 RMK AO2 T00601002 =
2018-10-17 07:55 METAR KIGQ 171255Z AUTO 30009G15KT 10SM CLR 06/00 A3020 RMK AO2 T00571003 =
2018-10-17 07:35 METAR KIGQ 171235Z AUTO 30010G14KT 10SM CLR 06/00 A3019 RMK AO2 T00551004 =
2018-10-17 07:15 METAR KIGQ 171215Z AUTO 29008KT 10SM CLR 05/00 A3017 RMK AO2 T00531003 =
2018-10-17 06:55 METAR KIGQ 171155Z AUTO 29007G15KT 10SM CLR 06/00 A3017 RMK AO2 T00561003 10071
                 20050 =
2018-10-17 06:35 METAR KIGQ 171135Z AUTO 28007G14KT 10SM CLR 06/00 A3016 RMK AO2 T00571001 =
2018-10-17 06:15 METAR KIGQ 171115Z AUTO 28006KT 10SM CLR 06/00 A3015 RMK AO2 T00560000 =
2018-10-17 05:55 METAR KIGQ 171055Z AUTO 28007KT 10SM CLR 06/00 A3014 RMK AO2 T00590000 =
2018-10-17 05:35 METAR KIGQ 171035Z AUTO 28008KT 10SM CLR 06/00 A3014 RMK AO2 T00620000 =
2018-10-17 05:15 METAR KIGQ 171015Z AUTO 27008KT 10SM CLR 06/00 A3013 RMK AO2 T00620002 =
2018-10-17 04:55 METAR KIGQ 170955Z AUTO 28009KT 10SM CLR 06/01 A3013 RMK AO2 T00600006 =
2018-10-17 04:35 METAR KIGQ 170935Z AUTO 26007KT 10SM CLR 06/01 A3012 RMK AO2 T00560010 =
2018-10-17 04:15 METAR KIGQ 170915Z AUTO 27006KT 10SM CLR 05/01 A3012 RMK AO2 T00500012 =
2018-10-17 03:55 METAR KIGQ 170855Z AUTO 26006KT 10SM CLR 05/02 A3011 RMK AO2 T00500016 =
2018-10-17 03:35 METAR KIGQ 170835Z AUTO 26006KT 10SM CLR 05/02 A3011 RMK AO2 T00500018 =
2018-10-17 03:15 METAR KIGQ 170815Z AUTO 25006KT 10SM CLR 05/02 A3010 RMK AO2 T00520018 =
2018-10-17 02:55 METAR KIGQ 170755Z AUTO 25006KT 10SM CLR 05/02 A3010 RMK AO2 T00530017 =
2018-10-17 02:35 METAR KIGQ 170735Z AUTO 26005KT 10SM CLR 05/02 A3010 RMK AO2 T00530017 =
2018-10-17 02:15 METAR KIGQ 170715Z AUTO 25005KT 10SM CLR 06/02 A3010 RMK AO2 T00580017 =
2018-10-17 01:55 METAR KIGQ 170655Z AUTO 26006KT 10SM CLR 07/02 A3008 RMK AO2 T00650020 =
2018-10-17 01:35 METAR KIGQ 170635Z AUTO 25006KT 10SM CLR 07/02 A3009 RMK AO2 T00650020 =
2018-10-17 01:15 METAR KIGQ 170615Z AUTO 27006KT 10SM CLR 07/02 A3009 RMK AO2 T00700020 =
2018-10-17 00:55 METAR KIGQ 170555Z AUTO 25005KT 10SM CLR 07/02 A3009 RMK AO2 T00720020 10096
                 20071 401401018 =
2018-10-17 00:35 METAR KIGQ 170535Z AUTO 26007KT 10SM CLR 08/02 A3009 RMK AO2 T00750020 =
2018-10-17 00:15 METAR KIGQ 170515Z AUTO 26009KT 10SM CLR 08/02 A3008 RMK AO2 T00790018 =
2018-10-16 23:55 METAR KIGQ 170455Z AUTO 25008KT 10SM CLR 08/02 A3009 RMK AO2 T00800015 =
2018-10-16 22:55 METAR KIGQ 170355Z AUTO 25012G17KT 10SM CLR 09/01 A3008 RMK AO2 T00910010 =
2018-10-16 22:35 METAR KIGQ 170335Z AUTO 24010KT 10SM CLR 09/01 A3008 RMK AO2 T00910010 =
2018-10-16 22:15 METAR KIGQ 170315Z AUTO 23008KT 10SM CLR 09/01 A3008 RMK AO2 T00870010 =
2018-10-16 21:55 METAR KIGQ 170255Z AUTO 22007KT 10SM CLR 08/01 A3008 RMK AO2 T00830011 =
2018-10-16 21:35 METAR KIGQ 170235Z AUTO 22006KT 10SM CLR 09/01 A3008 RMK AO2 T00850010 =
2018-10-16 21:15 METAR KIGQ 170215Z AUTO 23008KT 10SM CLR 08/01 A3007 RMK AO2 T00810008 =
2018-10-16 20:55 METAR KIGQ 170155Z AUTO 22008KT 10SM CLR 08/01 A3007 RMK AO2 T00820007 =
2018-10-16 20:35 METAR KIGQ 170135Z AUTO 22009KT 10SM CLR 09/01 A3006 RMK AO2 T00860006 =
2018-10-16 20:15 METAR KIGQ 170115Z AUTO 23009KT 10SM CLR 09/00 A3006 RMK AO2 T00920004 =
2018-10-16 19:55 METAR KIGQ 170055Z AUTO 22008KT 10SM CLR 09/00 A3006 RMK AO2 T00910004 =
2018-10-16 19:35 METAR KIGQ 170035Z AUTO 23009KT 10SM CLR 09/00 A3005 RMK AO2 T00940003 =
2018-10-16 19:15 METAR KIGQ 170015Z AUTO 22008KT 10SM CLR 09/00 A3004 RMK AO2 T00940002 =
2018-10-16 18:55 METAR KIGQ 162355Z AUTO 21007KT 10SM CLR 10/00 A3004 RMK AO2 T00950002 10140
                 20095 =
2018-10-16 18:35 METAR KIGQ 162335Z AUTO 21008KT 10SM CLR 10/00 A3003 RMK AO2 T00980000 =
2018-10-16 18:15 METAR KIGQ 162315Z AUTO 22007KT 10SM CLR 11/00 A3004 RMK AO2 T01120000 =
2018-10-16 17:55 METAR KIGQ 162255Z AUTO 23009KT 10SM CLR 12/00 A3003 RMK AO2 T01231001 =
2018-10-16 17:35 METAR KIGQ 162235Z AUTO 23013G18KT 10SM CLR 13/00 A3003 RMK AO2 T01291003 =
2018-10-16 17:15 METAR KIGQ 162215Z AUTO 23011G18KT 10SM CLR 13/00 A3003 RMK AO2 T01331002 =
2018-10-16 16:55 METAR KIGQ 162155Z AUTO 24011G19KT 10SM CLR 14/00 A3003 RMK AO2 T01351003 =
2018-10-16 16:35 METAR KIGQ 162135Z AUTO 24009G22KT 10SM CLR 14/00 A3003 RMK AO2 T01361005 =
2018-10-16 16:15 METAR KIGQ 162115Z AUTO 23012G20KT 10SM CLR 14/00 A3003 RMK AO2 T01381001 =
2018-10-16 15:55 METAR KIGQ 162055Z AUTO 23015G21KT 10SM CLR 14/M01 A3003 RMK AO2 T01371008 =
2018-10-16 15:35 METAR KIGQ 162035Z AUTO 23015G24KT 10SM CLR 14/00 A3004 RMK AO2 T01371005 =
2018-10-16 15:15 METAR KIGQ 162015Z AUTO 24014G22KT 10SM CLR 14/M01 A3005 RMK AO2 T01361007 =
2018-10-16 14:55 METAR KIGQ 161955Z AUTO 23015G22KT 10SM CLR 14/M01 A3006 RMK AO2 T01351009 =
2018-10-16 14:35 METAR KIGQ 161935Z AUTO 23017G21KT 10SM CLR 13/M01 A3007 RMK AO2 T01331006 =
2018-10-16 14:15 METAR KIGQ 161915Z AUTO 24013G22KT 10SM CLR 13/M01 A3008 RMK AO2 T01281010 =
2018-10-16 13:55 METAR KIGQ 161855Z AUTO 24018G22KT 10SM CLR 13/M01 A3010 RMK AO2 T01251012 =
2018-10-16 13:35 METAR KIGQ 161835Z AUTO 24018G24KT 10SM CLR 12/M01 A3010 RMK AO2 T01211006 =
2018-10-16 13:15 METAR KIGQ 161815Z AUTO 23020G23KT 10SM CLR 12/M01 A3011 RMK AO2 T01151011 =
2018-10-16 12:55 METAR KIGQ 161755Z AUTO 23020G25KT 10SM CLR 11/M01 A3012 RMK AO2 T01101010 10110
                 20000 =
2018-10-16 12:35 METAR KIGQ 161735Z AUTO 23017G26KT 10SM CLR 11/M01 A3014 RMK AO2 T01061011 =
2018-10-16 12:15 METAR KIGQ 161715Z AUTO 22019G24KT 10SM CLR 10/M01 A3015 RMK AO2 T01021008 =
2018-10-16 11:55 METAR KIGQ 161655Z AUTO 24018G24KT 10SM CLR 10/M01 A3016 RMK AO2 T00971013 =
2018-10-16 11:35 METAR KIGQ 161635Z AUTO 24015G23KT 10SM CLR 09/M01 A3016 RMK AO2 T00931009 =
2018-10-16 11:15 METAR KIGQ 161615Z AUTO 24017G23KT 10SM CLR 09/00 A3017 RMK AO2 T00911003 =

Support USWX by starting your Amazon purchase here.